Time;durP1;ratioP1;P1;durP2;ratioP2;P2;SDS_P1;SDS_P2;PMS_P1;PMS_P2;Temp;Humidity;BMP_temperature;BMP_pressure;BME280_temperature;BME280_humidity;BME280_pressure;Samples;Min_cycle;Max_cycle;Signal;HPM_P1;HPM_P2
2022/11/13 00:00:32;;;;;;;14.10;8.70;;;;;;;;;;5072058;28;20062;-82
2022/11/13 00:02:58;;;;;;;13.23;9.10;;;;;;;;;;5072494;28;20032;-83
2022/11/13 00:05:24;;;;;;;11.10;7.85;;;;;;;;;;5072131;28;20118;-81
2022/11/13 00:07:50;;;;;;;12.25;8.73;;;;;;;;;;5072445;28;20044;-83
2022/11/13 00:10:17;;;;;;;10.00;8.45;;;;;;;;;;5072184;28;20112;-85
2022/11/13 00:12:43;;;;;;;11.02;7.55;;;;;;;;;;5072287;28;20033;-79
2022/11/13 00:15:09;;;;;;;10.73;7.28;;;;;;;;;;5072297;28;20025;-82
2022/11/13 00:17:35;;;;;;;10.48;6.07;;;;;;;;;;5071917;28;20025;-84
2022/11/13 00:20:01;;;;;;;5.55;4.20;;;;;;;;;;5072355;28;20028;-81
2022/11/13 00:22:27;;;;;;;8.45;6.22;;;;;;;;;;5072071;28;20531;-84
2022/11/13 00:24:53;;;;;;;6.75;5.30;;;;;;;;;;5072118;28;20030;-81
2022/11/13 00:27:19;;;;;;;7.78;5.68;;;;;;;;;;5072159;28;20021;-85
2022/11/13 00:29:46;;;;;;;7.28;5.53;;;;;;;;;;5072010;28;20357;-84
2022/11/13 00:32:12;;;;;;;9.27;6.35;;;;;;;;;;5072173;28;20036;-83
2022/11/13 00:34:38;;;;;;;7.88;5.57;;;;;;;;;;5071765;28;20052;-79
2022/11/13 00:37:04;;;;;;;6.68;5.82;;;;;;;;;;5072074;28;20021;-81
2022/11/13 00:39:30;;;;;;;6.57;5.40;;;;;;;;;;5072028;28;20439;-83
2022/11/13 00:41:56;;;;;;;6.85;5.82;;;;;;;;;;5071991;28;20078;-82
2022/11/13 00:44:22;;;;;;;8.75;7.15;;;;;;;;;;5075242;28;20537;-84
2022/11/13 00:46:48;;;;;;;8.77;5.95;;;;;;;;;;5075538;28;20166;-84
2022/11/13 00:49:15;;;;;;;7.05;5.05;;;;;;;;;;5075650;28;20024;-83
2022/11/13 00:51:41;;;;;;;4.95;4.45;;;;;;;;;;5075450;28;20476;-82
2022/11/13 00:54:07;;;;;;;4.82;3.90;;;;;;;;;;5075596;28;20028;-80
2022/11/13 00:56:33;;;;;;;5.70;4.28;;;;;;;;;;5075451;28;20029;-82
2022/11/13 00:58:59;;;;;;;6.35;4.88;;;;;;;;;;5057164;28;20399;-80
2022/11/13 01:01:25;;;;;;;4.32;3.80;;;;;;;;;;5057463;28;20162;-83
2022/11/13 01:03:51;;;;;;;5.68;3.78;;;;;;;;;;5075147;28;20028;-85
2022/11/13 01:06:19;;;;;;;4.53;3.75;;;;;;;;;;5075403;28;20410;-82
2022/11/13 01:08:45;;;;;;;6.18;4.28;;;;;;;;;;5075041;28;20025;-79
2022/11/13 01:11:13;;;;;;;7.10;4.78;;;;;;;;;;5075341;28;20027;-86
2022/11/13 01:13:40;;;;;;;5.75;4.60;;;;;;;;;;5075017;28;20025;-83
2022/11/13 01:16:07;;;;;;;6.05;5.15;;;;;;;;;;5075197;28;20025;-84
2022/11/13 01:18:33;;;;;;;6.95;5.57;;;;;;;;;;5075327;28;20052;-82
2022/11/13 01:21:06;;;;;;;5.50;5.00;;;;;;;;;;5074913;28;20033;-81
2022/11/13 01:23:33;;;;;;;8.35;5.70;;;;;;;;;;5075184;28;20027;-85
2022/11/13 01:26:18;;;;;;;7.22;5.28;;;;;;;;;;5056942;28;20055;-84
2022/11/13 01:28:44;;;;;;;6.00;4.97;;;;;;;;;;5074661;28;20033;-84
2022/11/13 01:31:12;;;;;;;5.85;4.72;;;;;;;;;;5074838;28;20472;-81
2022/11/13 01:33:38;;;;;;;7.47;5.63;;;;;;;;;;5074576;28;20098;-81
2022/11/13 01:36:08;;;;;;;5.53;4.25;;;;;;;;;;5074908;28;20063;-79
2022/11/13 01:38:34;;;;;;;8.18;4.65;;;;;;;;;;5056534;28;20025;-84
2022/11/13 01:41:00;;;;;;;6.30;5.38;;;;;;;;;;5056801;28;20028;-82
2022/11/13 01:43:28;;;;;;;6.40;5.03;;;;;;;;;;5074606;28;20067;-82
2022/11/13 01:45:57;;;;;;;6.43;5.68;;;;;;;;;;5074476;28;20032;-83
2022/11/13 01:48:26;;;;;;;7.50;6.25;;;;;;;;;;5074556;28;20016;-84
2022/11/13 01:50:52;;;;;;;6.53;5.28;;;;;;;;;;5074638;28;20095;-82
2022/11/13 01:53:18;;;;;;;6.93;5.57;;;;;;;;;;5074045;28;20078;-82
2022/11/13 01:55:45;;;;;;;6.30;5.28;;;;;;;;;;5056479;28;20033;-82
2022/11/13 01:58:12;;;;;;;7.15;5.90;;;;;;;;;;5074635;28;20194;-84
2022/11/13 02:00:38;;;;;;;9.05;5.40;;;;;;;;;;5056195;28;20439;-81
2022/11/13 02:03:04;;;;;;;7.10;5.90;;;;;;;;;;5074350;28;20017;-81
2022/11/13 02:05:31;;;;;;;7.47;5.60;;;;;;;;;;5074069;28;20017;-81
2022/11/13 02:07:57;;;;;;;8.43;5.63;;;;;;;;;;5074355;28;20487;-85
2022/11/13 02:10:23;;;;;;;6.80;5.80;;;;;;;;;;5074025;28;20073;-81
2022/11/13 02:12:50;;;;;;;6.22;4.88;;;;;;;;;;5074004;28;20017;-83
2022/11/13 02:15:17;;;;;;;7.15;4.93;;;;;;;;;;5074076;28;20024;-84
2022/11/13 02:17:48;;;;;;;8.25;5.80;;;;;;;;;;5074042;28;20020;-85
2022/11/13 02:20:15;;;;;;;6.05;5.35;;;;;;;;;;5073963;28;20025;-84
2022/11/13 02:22:46;;;;;;;7.63;5.55;;;;;;;;;;5073854;28;20095;-82
2022/11/13 02:25:13;;;;;;;7.07;5.32;;;;;;;;;;5073981;28;20024;-82
2022/11/13 02:27:42;;;;;;;6.72;4.78;;;;;;;;;;5073756;28;20032;-82
2022/11/13 02:30:31;;;;;;;5.40;4.53;;;;;;;;;;5073880;28;20476;-83
2022/11/13 02:32:58;;;;;;;8.02;5.43;;;;;;;;;;5073710;28;20020;-82
2022/11/13 02:35:29;;;;;;;7.57;5.55;;;;;;;;;;5073915;28;20022;-82
2022/11/13 02:37:56;;;;;;;6.03;5.25;;;;;;;;;;5073628;28;20376;-83
2022/11/13 02:40:23;;;;;;;6.15;4.97;;;;;;;;;;5073910;28;20091;-86
2022/11/13 02:42:49;;;;;;;6.88;5.25;;;;;;;;;;5055785;28;20044;-84
2022/11/13 02:45:15;;;;;;;7.15;5.72;;;;;;;;;;5073265;28;20035;-86
2022/11/13 02:47:41;;;;;;;6.25;5.60;;;;;;;;;;5073515;28;20021;-83
2022/11/13 02:50:09;;;;;;;6.38;5.30;;;;;;;;;;5073276;28;20399;-83
2022/11/13 02:52:35;;;;;;;7.07;5.18;;;;;;;;;;5073505;28;20082;-82
2022/11/13 02:55:01;;;;;;;6.82;5.18;;;;;;;;;;5073144;28;20032;-83
2022/11/13 02:57:27;;;;;;;6.40;4.70;;;;;;;;;;5073413;28;20044;-84
2022/11/13 02:59:53;;;;;;;7.88;6.22;;;;;;;;;;5073038;28;20057;-84
2022/11/13 03:02:19;;;;;;;6.13;4.93;;;;;;;;;;5055144;28;20020;-83
2022/11/13 03:04:45;;;;;;;6.63;5.30;;;;;;;;;;5072813;28;20032;-83
2022/11/13 03:07:12;;;;;;;8.13;5.90;;;;;;;;;;5054456;28;20039;-84
2022/11/13 03:09:38;;;;;;;8.30;6.53;;;;;;;;;;5073121;28;20032;-80
2022/11/13 03:12:05;;;;;;;9.40;7.60;;;;;;;;;;5072929;28;20032;-83
2022/11/13 03:14:31;;;;;;;9.15;6.38;;;;;;;;;;5073030;28;20031;-83
2022/11/13 03:16:57;;;;;;;8.55;5.53;;;;;;;;;;5073019;28;20047;-83
2022/11/13 03:19:23;;;;;;;11.30;6.90;;;;;;;;;;5072734;28;20095;-84
2022/11/13 03:21:49;;;;;;;7.15;5.10;;;;;;;;;;5072736;28;20066;-82
2022/11/13 03:24:15;;;;;;;8.00;5.57;;;;;;;;;;5072498;28;20030;-83
2022/11/13 03:26:41;;;;;;;7.57;6.55;;;;;;;;;;5054841;28;20119;-84
2022/11/13 03:29:07;;;;;;;6.65;5.22;;;;;;;;;;5072542;28;20024;-82
2022/11/13 03:31:33;;;;;;;7.03;5.60;;;;;;;;;;5072587;28;20021;-80
2022/11/13 03:33:59;;;;;;;7.50;6.22;;;;;;;;;;5072608;28;20483;-81
2022/11/13 03:36:25;;;;;;;12.55;7.85;;;;;;;;;;5072385;28;20471;-84
2022/11/13 03:38:52;;;;;;;10.30;8.60;;;;;;;;;;5072589;28;20115;-81
2022/11/13 03:41:18;;;;;;;13.95;8.13;;;;;;;;;;5072405;28;20021;-81
2022/11/13 03:43:44;;;;;;;7.95;6.35;;;;;;;;;;5072572;28;20020;-82
2022/11/13 03:46:11;;;;;;;9.48;6.15;;;;;;;;;;5072386;28;20024;-79
2022/11/13 03:48:37;;;;;;;7.30;6.20;;;;;;;;;;5072558;28;20024;-85
2022/11/13 03:51:03;;;;;;;7.45;6.30;;;;;;;;;;5054381;28;20060;-85
2022/11/13 03:53:29;;;;;;;15.82;7.47;;;;;;;;;;5072315;28;20028;-82
2022/11/13 03:55:55;;;;;;;9.65;7.40;;;;;;;;;;5072315;28;20029;-85
2022/11/13 03:58:21;;;;;;;8.50;6.57;;;;;;;;;;5071893;28;20031;-83
2022/11/13 04:00:48;;;;;;;11.52;7.93;;;;;;;;;;5072388;28;20021;-84
2022/11/13 04:03:14;;;;;;;9.32;6.95;;;;;;;;;;5072349;28;20089;-82
2022/11/13 04:05:41;;;;;;;8.35;6.93;;;;;;;;;;5053982;28;20116;-83
2022/11/13 04:08:07;;;;;;;6.47;5.60;;;;;;;;;;5072192;28;20067;-82
2022/11/13 04:10:33;;;;;;;6.45;5.50;;;;;;;;;;5071953;28;20029;-80
2022/11/13 04:12:59;;;;;;;6.85;5.55;;;;;;;;;;5054357;28;20111;-84
2022/11/13 04:15:25;;;;;;;7.82;5.65;;;;;;;;;;5072123;28;20048;-81
2022/11/13 04:17:51;;;;;;;6.43;5.38;;;;;;;;;;5074791;28;20024;-81
2022/11/13 04:20:18;;;;;;;7.65;5.90;;;;;;;;;;5076347;28;20433;-82
2022/11/13 04:22:44;;;;;;;6.10;5.18;;;;;;;;;;5075993;28;20054;-81
2022/11/13 04:25:10;;;;;;;8.95;6.75;;;;;;;;;;5058010;28;20364;-81
2022/11/13 04:27:36;;;;;;;7.68;6.30;;;;;;;;;;5075954;28;20078;-82
2022/11/13 04:30:02;;;;;;;7.35;6.15;;;;;;;;;;5058204;28;20120;-81
2022/11/13 04:32:28;;;;;;;7.38;6.13;;;;;;;;;;5076015;28;20476;-83
2022/11/13 04:34:54;;;;;;;8.70;7.05;;;;;;;;;;5075825;28;20025;-83
2022/11/13 04:37:20;;;;;;;10.57;8.25;;;;;;;;;;5076121;28;20016;-82
2022/11/13 04:39:46;;;;;;;8.13;6.65;;;;;;;;;;5075702;28;20024;-83
2022/11/13 04:44:57;;;;;;;8.90;6.88;;;;;;;;;;5075740;28;20087;-80
2022/11/13 04:47:23;;;;;;;9.15;6.90;;;;;;;;;;5075522;28;20016;-82
2022/11/13 04:49:49;;;;;;;8.38;7.22;;;;;;;;;;5057791;28;20440;-82
2022/11/13 04:52:15;;;;;;;7.40;6.25;;;;;;;;;;5075054;28;20029;-84
2022/11/13 04:54:41;;;;;;;8.70;6.78;;;;;;;;;;5075387;28;20016;-80
2022/11/13 04:57:08;;;;;;;8.30;7.13;;;;;;;;;;5086082;28;20043;-82
2022/11/13 04:59:34;;;;;;;11.27;8.15;;;;;;;;;;5076959;28;20055;-85
2022/11/13 05:02:00;;;;;;;8.60;7.28;;;;;;;;;;5077503;28;20060;-84
2022/11/13 05:04:26;;;;;;;12.00;8.23;;;;;;;;;;5095587;28;20490;-85
2022/11/13 05:06:52;;;;;;;11.23;7.72;;;;;;;;;;5095637;28;20039;-83
2022/11/13 05:09:18;;;;;;;10.13;7.57;;;;;;;;;;5095555;28;20028;-83
2022/11/13 05:11:44;;;;;;;8.65;7.10;;;;;;;;;;5095397;28;20026;-86
2022/11/13 05:14:11;;;;;;;10.77;7.45;;;;;;;;;;5077298;28;20024;-84
2022/11/13 05:16:37;;;;;;;10.82;8.07;;;;;;;;;;5095223;28;20372;-82
2022/11/13 05:19:05;;;;;;;16.88;15.07;;;;;;;;;;5095427;28;20058;-83
2022/11/13 05:21:35;;;;;;;9.27;7.38;;;;;;;;;;5095198;28;20047;-79
2022/11/13 05:24:01;;;;;;;6.82;6.05;;;;;;;;;;5095269;28;20452;-81
2022/11/13 05:26:27;;;;;;;8.52;6.20;;;;;;;;;;5095223;28;20036;-81
2022/11/13 05:28:56;;;;;;;9.10;7.20;;;;;;;;;;5075969;28;20135;-83
2022/11/13 05:31:22;;;;;;;8.65;6.72;;;;;;;;;;5095287;28;20111;-84
2022/11/13 05:33:49;;;;;;;9.90;6.82;;;;;;;;;;5095200;28;20055;-80
2022/11/13 05:36:15;;;;;;;8.07;6.38;;;;;;;;;;5095082;28;20028;-83
2022/11/13 05:38:42;;;;;;;10.48;8.48;;;;;;;;;;5094865;28;20028;-82
2022/11/13 05:41:09;;;;;;;10.05;8.48;;;;;;;;;;5095056;28;20027;-82
2022/11/13 05:43:36;;;;;;;13.82;10.77;;;;;;;;;;5076381;28;20024;-82
2022/11/13 05:46:22;;;;;;;9.95;8.80;;;;;;;;;;5094921;28;20032;-80
2022/11/13 05:48:51;;;;;;;9.27;7.20;;;;;;;;;;5094876;28;20024;-83
2022/11/13 05:51:19;;;;;;;6.80;6.00;;;;;;;;;;5094365;28;20109;-80
2022/11/13 05:53:45;;;;;;;8.02;6.68;;;;;;;;;;5091723;28;20036;-81
2022/11/13 05:56:12;;;;;;;8.05;6.63;;;;;;;;;;5094067;28;20506;-81
2022/11/13 05:58:39;;;;;;;9.40;7.53;;;;;;;;;;5094446;28;20031;-85
2022/11/13 06:01:15;;;;;;;7.75;5.95;;;;;;;;;;5094462;28;20111;-82
2022/11/13 06:03:42;;;;;;;10.20;7.65;;;;;;;;;;5094601;28;20106;-81
2022/11/13 06:06:09;;;;;;;11.38;9.27;;;;;;;;;;5094294;28;20031;-82
2022/11/13 06:08:35;;;;;;;14.77;11.73;;;;;;;;;;5094262;28;20023;-81
2022/11/13 06:11:04;;;;;;;19.00;15.20;;;;;;;;;;5054231;28;20036;-81
2022/11/13 06:13:30;;;;;;;38.13;26.00;;;;;;;;;;5053943;28;20033;-80
2022/11/13 06:16:15;;;;;;;48.63;34.65;;;;;;;;;;5054150;28;20036;-81
2022/11/13 06:18:41;;;;;;;37.30;27.13;;;;;;;;;;5055679;28;20033;-84
2022/11/13 06:21:09;;;;;;;39.67;26.02;;;;;;;;;;5093923;28;20028;-81
2022/11/13 06:23:36;;;;;;;39.22;26.98;;;;;;;;;;5071185;28;20449;-79
2022/11/13 06:26:06;;;;;;;36.03;24.30;;;;;;;;;;5077522;28;20052;-84
2022/11/13 06:28:33;;;;;;;46.75;32.70;;;;;;;;;;5073086;28;20533;-82
2022/11/13 06:31:10;;;;;;;47.97;37.35;;;;;;;;;;5073067;28;20040;-81
2022/11/13 06:33:37;;;;;;;29.67;24.48;;;;;;;;;;5072429;28;20021;-83
2022/11/13 06:36:07;;;;;;;32.17;24.50;;;;;;;;;;5072931;28;20070;-82
2022/11/13 06:38:34;;;;;;;43.95;32.95;;;;;;;;;;5072927;28;20116;-83
2022/11/13 06:41:00;;;;;;;36.67;29.13;;;;;;;;;;5072920;28;20463;-84
2022/11/13 06:43:27;;;;;;;32.67;26.30;;;;;;;;;;5070369;28;20019;-79
2022/11/13 06:45:53;;;;;;;27.35;21.17;;;;;;;;;;5072741;28;20083;-80
2022/11/13 06:48:20;;;;;;;26.50;18.17;;;;;;;;;;5079672;28;20107;-80
2022/11/13 06:50:46;;;;;;;15.05;11.13;;;;;;;;;;5093424;28;20099;-82
2022/11/13 06:53:12;;;;;;;10.77;7.90;;;;;;;;;;5076841;28;20060;-82
2022/11/13 06:55:45;;;;;;;10.63;8.15;;;;;;;;;;5059375;28;20146;-81
2022/11/13 06:58:11;;;;;;;13.65;9.27;;;;;;;;;;5073323;28;20021;-83
2022/11/13 07:00:37;;;;;;;82.30;59.60;;;;;;;;;;5072852;28;20052;-82
2022/11/13 07:03:03;;;;;;;99.28;77.65;;;;;;;;;;5073048;28;20103;-83
2022/11/13 07:05:29;;;;;;;114.05;95.70;;;;;;;;;;5082354;28;20093;-82
2022/11/13 07:07:55;;;;;;;89.00;69.63;;;;;;;;;;5091558;28;20065;-83
2022/11/13 07:10:21;;;;;;;87.38;66.95;;;;;;;;;;5074020;28;20146;-81
2022/11/13 07:12:47;;;;;;;65.07;50.75;;;;;;;;;;5072385;28;20376;-80
2022/11/13 07:15:15;;;;;;;61.15;42.58;;;;;;;;;;5073921;28;20027;-81
2022/11/13 07:17:41;;;;;;;45.05;34.55;;;;;;;;;;5093142;28;20024;-81
2022/11/13 07:20:07;;;;;;;29.42;25.45;;;;;;;;;;5092873;28;20024;-81
2022/11/13 07:22:33;;;;;;;24.00;19.25;;;;;;;;;;5093258;28;20024;-83
2022/11/13 07:24:59;;;;;;;24.25;19.80;;;;;;;;;;5085177;28;20028;-81
2022/11/13 07:27:26;;;;;;;21.60;15.70;;;;;;;;;;5054419;28;20028;-80
2022/11/13 07:29:52;;;;;;;21.05;16.25;;;;;;;;;;5054039;28;20479;-79
2022/11/13 07:32:18;;;;;;;19.48;16.50;;;;;;;;;;5072158;28;20526;-81
2022/11/13 07:34:44;;;;;;;22.92;18.35;;;;;;;;;;5066136;28;20041;-82
2022/11/13 07:37:10;;;;;;;19.00;15.50;;;;;;;;;;5071995;28;20096;-82
2022/11/13 07:39:36;;;;;;;18.92;15.15;;;;;;;;;;5055031;28;20066;-82
2022/11/13 07:42:02;;;;;;;17.50;14.52;;;;;;;;;;5072920;28;20023;-82
2022/11/13 07:44:28;;;;;;;16.27;12.77;;;;;;;;;;5072810;28;20484;-82
2022/11/13 07:46:55;;;;;;;13.25;10.40;;;;;;;;;;5070874;28;20033;-84
2022/11/13 07:49:21;;;;;;;13.32;10.27;;;;;;;;;;5071398;28;20371;-84
2022/11/13 07:51:47;;;;;;;15.25;10.27;;;;;;;;;;5072534;28;20024;-84
2022/11/13 07:54:13;;;;;;;22.92;11.75;;;;;;;;;;5064755;28;20099;-84
2022/11/13 07:56:39;;;;;;;16.55;10.15;;;;;;;;;;5054145;28;20033;-81
2022/11/13 07:59:05;;;;;;;12.38;9.32;;;;;;;;;;5057425;28;20072;-82
2022/11/13 08:01:31;;;;;;;11.98;9.10;;;;;;;;;;5059769;28;20175;-80
2022/11/13 08:03:58;;;;;;;15.52;12.32;;;;;;;;;;5060259;28;20024;-82
2022/11/13 08:06:26;;;;;;;15.05;12.52;;;;;;;;;;5058998;28;20037;-80
2022/11/13 08:08:53;;;;;;;13.07;10.63;;;;;;;;;;5064523;28;20471;-83
2022/11/13 08:11:19;;;;;;;12.20;10.13;;;;;;;;;;5063357;28;20060;-85
2022/11/13 08:13:45;;;;;;;13.23;10.77;;;;;;;;;;5059385;28;20116;-81
2022/11/13 08:16:11;;;;;;;13.32;11.00;;;;;;;;;;5060283;28;20116;-81
2022/11/13 08:18:37;;;;;;;14.30;10.02;;;;;;;;;;5071821;28;20494;-80
2022/11/13 08:21:04;;;;;;;13.90;10.57;;;;;;;;;;5072501;28;20016;-80
2022/11/13 08:23:30;;;;;;;13.45;11.02;;;;;;;;;;5071917;28;20025;-79
2022/11/13 08:25:57;;;;;;;15.32;12.00;;;;;;;;;;5072569;28;20071;-81
2022/11/13 08:28:23;;;;;;;13.20;9.80;;;;;;;;;;5066445;28;20029;-83
2022/11/13 08:30:49;;;;;;;10.32;8.05;;;;;;;;;;5061557;28;20476;-80
2022/11/13 08:33:15;;;;;;;10.75;7.82;;;;;;;;;;5060785;28;20384;-81
2022/11/13 08:35:41;;;;;;;14.75;9.95;;;;;;;;;;5052949;28;20037;-80
2022/11/13 08:38:08;;;;;;;9.68;7.68;;;;;;;;;;5035046;28;20492;-80
2022/11/13 08:40:35;;;;;;;10.27;8.00;;;;;;;;;;5056154;28;20021;-82
2022/11/13 08:43:02;;;;;;;10.82;9.00;;;;;;;;;;5069904;28;20463;-82
2022/11/13 08:45:29;;;;;;;9.68;7.80;;;;;;;;;;5069913;28;20391;-80
2022/11/13 08:47:59;;;;;;;10.95;9.68;;;;;;;;;;5072615;28;20376;-83
2022/11/13 08:50:25;;;;;;;11.32;9.45;;;;;;;;;;5063027;28;20036;-81
2022/11/13 08:52:57;;;;;;;13.60;9.68;;;;;;;;;;5069359;28;20406;-83
2022/11/13 08:55:23;;;;;;;21.60;15.43;;;;;;;;;;5071099;28;20024;-80
2022/11/13 08:57:50;;;;;;;20.92;17.13;;;;;;;;;;5077298;28;20475;-82
2022/11/13 09:00:16;;;;;;;16.63;12.98;;;;;;;;;;5070432;28;20060;-82
2022/11/13 09:02:42;;;;;;;12.85;9.20;;;;;;;;;;5068445;28;20102;-82
2022/11/13 09:05:09;;;;;;;9.82;8.13;;;;;;;;;;5074448;28;20024;-83
2022/11/13 09:07:35;;;;;;;12.25;9.13;;;;;;;;;;5077712;28;20024;-80
2022/11/13 09:10:01;;;;;;;13.23;10.13;;;;;;;;;;5075682;28;20020;-80
2022/11/13 09:12:27;;;;;;;21.25;15.05;;;;;;;;;;5075619;28;20375;-84
2022/11/13 09:14:53;;;;;;;11.85;9.15;;;;;;;;;;5075653;28;20438;-81
2022/11/13 09:17:19;;;;;;;9.88;8.18;;;;;;;;;;5079521;28;20042;-81
2022/11/13 09:19:46;;;;;;;12.77;9.45;;;;;;;;;;5096354;28;20020;-80
2022/11/13 09:22:12;;;;;;;12.38;9.32;;;;;;;;;;5096241;28;20027;-80
2022/11/13 09:24:38;;;;;;;9.70;8.63;;;;;;;;;;5096190;28;20032;-80
2022/11/13 09:27:04;;;;;;;9.40;7.70;;;;;;;;;;5095892;28;20036;-83
2022/11/13 09:29:30;;;;;;;11.63;8.82;;;;;;;;;;5096026;28;20475;-82
2022/11/13 09:31:56;;;;;;;11.30;9.15;;;;;;;;;;5096211;28;20028;-80
2022/11/13 09:34:25;;;;;;;9.88;7.90;;;;;;;;;;5077094;28;20032;-79
2022/11/13 09:36:51;;;;;;;10.10;8.00;;;;;;;;;;5066619;28;20107;-81
2022/11/13 09:39:17;;;;;;;10.55;8.02;;;;;;;;;;5057703;28;20025;-79
2022/11/13 09:41:49;;;;;;;12.95;8.52;;;;;;;;;;5055179;28;20557;-83
2022/11/13 09:44:34;;;;;;;10.82;7.40;;;;;;;;;;5070554;28;20029;-79
2022/11/13 09:47:11;;;;;;;10.30;7.78;;;;;;;;;;5072507;28;20031;-80
2022/11/13 09:49:40;;;;;;;10.43;7.63;;;;;;;;;;5077680;28;20016;-81
2022/11/13 09:52:11;;;;;;;9.77;7.45;;;;;;;;;;5057390;28;20051;-80
2022/11/13 09:54:37;;;;;;;8.20;7.07;;;;;;;;;;5071286;28;20028;-80
2022/11/13 09:57:22;;;;;;;11.07;8.50;;;;;;;;;;5073809;28;20024;-80
2022/11/13 09:59:56;;;;;;;12.32;8.40;;;;;;;;;;5072719;28;20055;-80
2022/11/13 10:02:31;;;;;;;9.90;8.27;;;;;;;;;;5073279;28;20024;-81
2022/11/13 10:04:57;;;;;;;10.75;7.75;;;;;;;;;;5074536;28;20028;-81
2022/11/13 10:07:38;;;;;;;10.77;8.15;;;;;;;;;;5066360;28;20118;-81
2022/11/13 10:10:25;;;;;;;9.70;8.02;;;;;;;;;;5068027;28;20052;-83
2022/11/13 10:12:52;;;;;;;13.77;8.93;;;;;;;;;;5064157;28;20039;-84
2022/11/13 10:15:19;;;;;;;15.25;11.82;;;;;;;;;;5072655;28;20028;-82
2022/11/13 10:17:51;;;;;;;11.10;9.43;;;;;;;;;;5083497;28;20025;-80
2022/11/13 10:20:20;;;;;;;11.45;9.05;;;;;;;;;;5075027;28;20025;-80
2022/11/13 10:22:58;;;;;;;12.27;9.23;;;;;;;;;;5068395;28;20032;-81
2022/11/13 10:25:33;;;;;;;10.73;8.20;;;;;;;;;;5066907;28;20199;-81
2022/11/13 10:28:00;;;;;;;14.10;9.95;;;;;;;;;;5086562;28;20478;-81
2022/11/13 10:30:26;;;;;;;9.60;8.43;;;;;;;;;;5086184;28;20066;-80
2022/11/13 10:32:53;;;;;;;9.98;8.52;;;;;;;;;;5092670;28;20065;-82
2022/11/13 10:35:19;;;;;;;10.20;8.77;;;;;;;;;;5094924;28;20023;-82
2022/11/13 10:38:02;;;;;;;10.73;8.75;;;;;;;;;;5094277;28;20032;-83
2022/11/13 10:40:31;;;;;;;11.68;9.13;;;;;;;;;;5094439;28;20119;-81
2022/11/13 10:43:24;;;;;;;8.85;7.93;;;;;;;;;;5076273;28;20406;-79
2022/11/13 10:46:08;;;;;;;11.30;8.98;;;;;;;;;;5090008;28;20109;-81
2022/11/13 10:48:35;;;;;;;14.95;10.70;;;;;;;;;;5064796;28;20086;-81
2022/11/13 10:51:06;;;;;;;14.05;10.90;;;;;;;;;;5076120;28;20070;-79
2022/11/13 10:53:40;;;;;;;11.57;8.77;;;;;;;;;;5094389;28;20050;-80
2022/11/13 10:56:14;;;;;;;12.43;8.47;;;;;;;;;;5094614;28;20368;-81
2022/11/13 10:58:40;;;;;;;10.57;8.32;;;;;;;;;;5094298;28;20132;-82
2022/11/13 11:01:25;;;;;;;11.98;8.52;;;;;;;;;;5093541;28;20077;-80
2022/11/13 11:03:51;;;;;;;11.57;8.38;;;;;;;;;;5093999;28;20028;-81
2022/11/13 11:06:17;;;;;;;10.10;7.90;;;;;;;;;;5075742;28;20429;-82
2022/11/13 11:08:43;;;;;;;8.85;7.80;;;;;;;;;;5089814;28;20375;-81
2022/11/13 11:14:15;;;;;;;12.25;8.80;;;;;;;;;;5073945;28;20563;-80
2022/11/13 11:16:42;;;;;;;12.57;11.27;;;;;;;;;;5063420;28;20024;-79
2022/11/13 11:19:10;;;;;;;10.60;8.93;;;;;;;;;;5087194;28;20021;-81
2022/11/13 11:21:38;;;;;;;11.07;9.07;;;;;;;;;;5065932;28;20135;-82
2022/11/13 11:24:12;;;;;;;17.30;8.70;;;;;;;;;;5062561;28;20105;-81
2022/11/13 11:26:38;;;;;;;;;;;;;;;;;;5071666;28;20152;-82
2022/11/13 11:29:23;;;;;;;11.98;8.27;;;;;;;;;;5071857;28;19992;-80
2022/11/13 11:31:49;;;;;;;11.50;8.35;;;;;;;;;;5065613;28;20029;-83
2022/11/13 11:34:17;;;;;;;11.55;9.10;;;;;;;;;;5072357;28;20028;-82
2022/11/13 11:37:03;;;;;;;10.48;9.38;;;;;;;;;;5057481;28;20063;-81
2022/11/13 11:39:37;;;;;;;13.02;8.90;;;;;;;;;;5046714;28;20020;-79
2022/11/13 11:42:03;;;;;;;;;;;;;;;;;;5053941;28;20052;-81
2022/11/13 11:44:47;;;;;;;13.48;9.93;;;;;;;;;;5056408;28;19991;-80
2022/11/13 11:47:15;;;;;;;12.95;9.57;;;;;;;;;;5078780;28;20032;-85
2022/11/13 11:49:41;;;;;;;11.45;9.15;;;;;;;;;;5070359;28;20036;-81
2022/11/13 11:52:14;;;;;;;11.77;10.38;;;;;;;;;;5064298;28;20043;-81
2022/11/13 11:54:58;;;;;;;11.98;9.93;;;;;;;;;;5060314;28;20028;-80
2022/11/13 11:57:25;;;;;;;21.13;17.30;;;;;;;;;;5068551;28;20040;-81
2022/11/13 11:59:54;;;;;;;13.07;11.02;;;;;;;;;;5054990;28;20055;-80
2022/11/13 12:02:38;;;;;;;19.95;11.60;;;;;;;;;;5073468;28;20021;-85
2022/11/13 12:05:28;;;;;;;11.18;9.65;;;;;;;;;;5073096;28;20045;-85
2022/11/13 12:08:03;;;;;;;11.60;9.27;;;;;;;;;;5062293;28;20109;-83
2022/11/13 12:10:36;;;;;;;12.18;9.30;;;;;;;;;;5069710;28;20094;-84
2022/11/13 12:13:20;;;;;;;10.95;9.73;;;;;;;;;;5077261;28;20706;-78
2022/11/13 12:15:46;;;;;;;;;;;;;;;;;;5061377;28;20029;-83
2022/11/13 12:18:12;;;;;;;12.57;9.77;;;;;;;;;;5064552;28;19916;-79
2022/11/13 12:21:02;;;;;;;10.70;9.27;;;;;;;;;;5054958;28;20017;-84
2022/11/13 12:23:28;;;;;;;12.02;9.70;;;;;;;;;;5072014;28;20024;-83
2022/11/13 12:25:57;;;;;;;9.88;8.70;;;;;;;;;;5091515;28;20039;-80
2022/11/13 12:28:29;;;;;;;11.55;10.35;;;;;;;;;;5093317;28;20106;-81
2022/11/13 12:30:58;;;;;;;11.45;9.63;;;;;;;;;;5075031;28;20024;-80
2022/11/13 12:33:31;;;;;;;10.40;9.20;;;;;;;;;;5093235;28;20484;-84
2022/11/13 12:35:57;;;;;;;14.00;9.68;;;;;;;;;;5093228;28;20479;-81
2022/11/13 12:38:42;;;;;;;10.25;8.57;;;;;;;;;;5094875;28;20020;-82
2022/11/13 12:41:08;;;;;;;;;;;;;;;;;;5097014;28;20035;-82
2022/11/13 12:43:34;;;;;;;14.70;11.65;;;;;;;;;;5078809;28;19904;-79
2022/11/13 12:46:05;;;;;;;17.05;11.73;;;;;;;;;;5080147;28;20055;-80
2022/11/13 12:48:36;;;;;;;14.00;11.88;;;;;;;;;;5096568;28;20119;-79
2022/11/13 12:51:12;;;;;;;15.35;12.88;;;;;;;;;;5096788;28;20113;-81
2022/11/13 12:53:51;;;;;;;15.88;12.98;;;;;;;;;;5096689;28;20471;-79
2022/11/13 12:56:38;;;;;;;16.02;11.32;;;;;;;;;;5071186;28;20158;-82
2022/11/13 12:59:30;;;;;;;12.52;10.38;;;;;;;;;;5074081;28;20109;-80
2022/11/13 13:02:00;;;;;;;12.95;10.25;;;;;;;;;;5076474;28;20040;-81
2022/11/13 13:04:33;;;;;;;16.17;11.07;;;;;;;;;;5076052;28;20043;-83
2022/11/13 13:07:18;;;;;;;15.25;11.65;;;;;;;;;;5076382;28;20025;-80
2022/11/13 13:10:04;;;;;;;12.50;11.20;;;;;;;;;;5076299;28;20035;-80
2022/11/13 13:12:40;;;;;;;16.42;12.85;;;;;;;;;;5075016;28;20483;-80
2022/11/13 13:15:25;;;;;;;14.07;11.95;;;;;;;;;;5074978;28;20429;-82
2022/11/13 13:18:01;;;;;;;14.43;11.52;;;;;;;;;;5076141;28;20020;-81
2022/11/13 13:20:33;;;;;;;11.25;9.45;;;;;;;;;;5076165;28;20052;-84
2022/11/13 13:23:00;;;;;;;14.02;10.98;;;;;;;;;;5075969;28;20020;-84
2022/11/13 13:25:44;;;;;;;13.55;10.65;;;;;;;;;;5076114;28;20051;-80
2022/11/13 13:28:29;;;;;;;13.02;10.48;;;;;;;;;;5076251;28;20371;-81
2022/11/13 13:31:03;;;;;;;13.05;11.05;;;;;;;;;;5076049;28;20527;-83
2022/11/13 13:33:48;;;;;;;17.52;15.38;;;;;;;;;;5076046;28;20024;-80
2022/11/13 13:36:40;;;;;;;19.60;16.00;;;;;;;;;;5075840;28;20025;-82
2022/11/13 13:39:25;;;;;;;17.58;13.95;;;;;;;;;;5072313;28;20042;-84
2022/11/13 13:42:10;;;;;;;24.45;18.10;;;;;;;;;;5075865;28;20022;-85
2022/11/13 13:44:42;;;;;;;32.42;26.45;;;;;;;;;;5075555;28;20025;-78
2022/11/13 13:47:24;;;;;;;27.00;20.95;;;;;;;;;;5075657;28;20021;-80
2022/11/13 13:49:50;;;;;;;32.38;25.50;;;;;;;;;;5074595;28;20029;-80
2022/11/13 13:52:19;;;;;;;21.35;16.00;;;;;;;;;;5075795;28;20089;-83
2022/11/13 13:54:46;;;;;;;25.23;19.80;;;;;;;;;;5075205;28;20441;-82
2022/11/13 13:57:14;;;;;;;26.63;23.40;;;;;;;;;;5063996;28;20036;-84
2022/11/13 13:59:43;;;;;;;31.60;27.25;;;;;;;;;;5063201;28;20041;-84
2022/11/13 14:02:14;;;;;;;18.30;16.27;;;;;;;;;;5075410;28;20017;-80
2022/11/13 14:04:47;;;;;;;16.88;15.00;;;;;;;;;;5075160;28;20051;-82
2022/11/13 14:07:19;;;;;;;16.75;14.10;;;;;;;;;;5075336;28;20035;-79
2022/11/13 14:09:45;;;;;;;14.68;12.90;;;;;;;;;;5075226;28;20020;-83
2022/11/13 14:12:30;;;;;;;16.58;13.82;;;;;;;;;;5075131;28;20455;-81
2022/11/13 14:14:56;;;;;;;18.48;14.77;;;;;;;;;;5075124;28;20025;-82
2022/11/13 14:17:24;;;;;;;21.00;17.58;;;;;;;;;;5075578;28;20096;-82
2022/11/13 14:19:53;;;;;;;21.17;18.17;;;;;;;;;;5076949;28;20025;-79
2022/11/13 14:22:19;;;;;;;22.50;18.70;;;;;;;;;;5075419;28;20035;-80
2022/11/13 14:24:47;;;;;;;22.83;17.02;;;;;;;;;;5074918;28;20054;-80
2022/11/13 14:27:17;;;;;;;36.33;25.67;;;;;;;;;;5074898;28;20048;-80
2022/11/13 14:29:49;;;;;;;21.50;16.50;;;;;;;;;;5074695;28;20046;-80
2022/11/13 14:32:21;;;;;;;30.92;20.50;;;;;;;;;;5074708;28;20379;-84
2022/11/13 14:34:48;;;;;;;24.15;17.75;;;;;;;;;;5056717;28;20387;-82
2022/11/13 14:37:32;;;;;;;24.35;16.92;;;;;;;;;;5074937;28;20404;-80
2022/11/13 14:40:03;;;;;;;22.98;16.73;;;;;;;;;;5056578;28;20024;-81
2022/11/13 14:42:38;;;;;;;23.20;17.25;;;;;;;;;;5056713;28;20031;-81
2022/11/13 14:45:22;;;;;;;24.35;17.20;;;;;;;;;;5074496;28;20036;-83
2022/11/13 14:48:07;;;;;;;23.30;18.63;;;;;;;;;;5074497;28;20036;-80